< < Back
Terminal Aerodrome Forecast


Current Version              Previous Versions:   1  2  3  4  5  6  7  8  9  

Terminal Aerodrome Forecast

047
FTUS42 KFFC 292333
TAFMCN
TAF
KMCN 292333Z 3000/3024 07010KT P6SM FEW070 BKN150
     FM300500 VRB03KT P6SM SCT150
     FM301500 31006KT P6SM FEW040
     FM302000 32010KT P6SM SCT250=

Latest METAR

535
SAUS80 KWBC 301200 RRA
MTRMCN
METAR KMCN 301153Z 00000KT 10SM CLR 21/18 A3002 RMK AO2 SLP162 T02060178
10206 20172 51007


USA.gov is the U.S. government's official web portal to all federal, state and local government web resources and services.